createdAt,value
2022-10-22T00:00:08.537Z,20.11
2022-10-22T00:00:18.530Z,20.13
2022-10-22T00:00:28.528Z,20.12
2022-10-22T00:00:38.532Z,20.11
2022-10-22T00:00:48.533Z,20.12
2022-10-22T00:00:58.537Z,20.12
2022-10-22T00:01:08.531Z,20.10
2022-10-22T00:01:18.534Z,20.11
2022-10-22T00:01:28.536Z,20.11
2022-10-22T00:01:38.535Z,20.12
2022-10-22T00:01:48.537Z,20.11
2022-10-22T00:01:58.567Z,20.12
2022-10-22T00:02:08.537Z,20.13
2022-10-22T00:02:18.574Z,20.12
2022-10-22T00:02:28.577Z,20.11
2022-10-22T00:02:38.583Z,20.12
2022-10-22T00:02:48.578Z,20.12
2022-10-22T00:02:58.617Z,20.11
2022-10-22T00:03:08.627Z,20.12
2022-10-22T00:03:18.546Z,20.11
2022-10-22T00:03:28.551Z,20.14
2022-10-22T00:03:38.550Z,20.11
2022-10-22T00:03:48.553Z,20.12
2022-10-22T00:03:58.551Z,20.12
2022-10-22T00:04:08.551Z,20.11
2022-10-22T00:04:18.554Z,20.11
2022-10-22T00:04:32.956Z,20.11
2022-10-22T00:04:39.599Z,20.09
2022-10-22T00:04:48.560Z,20.10
2022-10-22T00:04:58.564Z,20.10
2022-10-22T00:05:08.560Z,20.10
2022-10-22T00:05:18.560Z,20.12
2022-10-22T00:05:28.566Z,20.12
2022-10-22T00:05:38.560Z,20.11
2022-10-22T00:05:48.560Z,20.11
2022-10-22T00:05:58.563Z,20.09
2022-10-22T00:06:08.582Z,20.10
2022-10-22T00:06:18.564Z,20.10
2022-10-22T00:06:28.568Z,20.10
2022-10-22T00:06:38.569Z,20.11
2022-10-22T00:06:48.569Z,20.11
2022-10-22T00:06:58.588Z,20.10
2022-10-22T00:07:08.571Z,20.09
2022-10-22T00:07:18.573Z,20.11
2022-10-22T00:07:28.576Z,20.08
2022-10-22T00:07:38.916Z,20.09
2022-10-22T00:07:48.575Z,20.10
2022-10-22T00:07:58.578Z,20.10
2022-10-22T00:08:08.576Z,20.10
2022-10-22T00:08:18.579Z,20.11
2022-10-22T00:08:28.577Z,20.08
2022-10-22T00:08:38.624Z,20.11
2022-10-22T00:08:48.644Z,20.10
2022-10-22T00:08:58.607Z,20.10
2022-10-22T00:09:08.688Z,20.10
2022-10-22T00:09:18.651Z,20.11
2022-10-22T00:09:28.582Z,20.11
2022-10-22T00:09:38.584Z,20.11
2022-10-22T00:09:48.582Z,20.11
2022-10-22T00:09:58.581Z,20.11
2022-10-22T00:10:08.590Z,20.11
2022-10-22T00:10:18.586Z,20.11
2022-10-22T00:10:28.586Z,20.10
2022-10-22T00:10:38.589Z,20.10
2022-10-22T00:10:48.588Z,20.09
2022-10-22T00:10:58.589Z,20.10
2022-10-22T00:11:08.607Z,20.12
2022-10-22T00:11:18.590Z,20.12
2022-10-22T00:11:28.591Z,20.09
2022-10-22T00:11:38.592Z,20.11
2022-10-22T00:11:48.594Z,20.09
2022-10-22T00:11:58.608Z,20.10
2022-10-22T00:12:08.594Z,20.09
2022-10-22T00:12:18.597Z,20.10
2022-10-22T00:12:28.596Z,20.10
2022-10-22T00:12:38.601Z,20.10
2022-10-22T00:12:48.599Z,20.10
2022-10-22T00:12:58.598Z,20.11
2022-10-22T00:13:08.603Z,20.11
2022-10-22T00:13:18.602Z,20.10
2022-10-22T00:13:28.604Z,20.11
2022-10-22T00:13:38.668Z,20.11
2022-10-22T00:13:48.593Z,20.11
2022-10-22T00:13:58.604Z,20.12
2022-10-22T00:14:08.607Z,20.10
2022-10-22T00:14:18.612Z,20.09
2022-10-22T00:14:28.609Z,20.12
2022-10-22T00:14:38.615Z,20.10
2022-10-22T00:14:48.612Z,20.10
2022-10-22T00:14:58.611Z,20.10
2022-10-22T00:15:08.614Z,20.09
2022-10-22T00:15:18.614Z,20.10
2022-10-22T00:15:28.612Z,20.10
2022-10-22T00:15:38.618Z,20.10
2022-10-22T00:15:48.640Z,20.10
2022-10-22T00:15:58.617Z,20.11
2022-10-22T00:16:08.617Z,20.10
2022-10-22T00:16:18.617Z,20.12
2022-10-22T00:16:28.618Z,20.09
2022-10-22T00:16:38.617Z,20.10
2022-10-22T00:16:48.618Z,20.11
2022-10-22T00:16:58.635Z,20.10
2022-10-22T00:17:11.453Z,20.11
2022-10-22T00:17:18.623Z,20.08
2022-10-22T00:17:28.626Z,20.11
2022-10-22T00:17:39.102Z,20.10
2022-10-22T00:17:48.626Z,20.10
2022-10-22T00:17:58.628Z,20.07
2022-10-22T00:18:08.626Z,20.09
2022-10-22T00:18:18.626Z,20.10
2022-10-22T00:18:28.632Z,20.09
2022-10-22T00:18:38.630Z,20.10
2022-10-22T00:18:48.632Z,20.09
2022-10-22T00:18:58.633Z,20.08
2022-10-22T00:19:08.634Z,20.10
2022-10-22T00:19:18.632Z,20.07
2022-10-22T00:19:28.634Z,20.09
2022-10-22T00:19:38.641Z,20.10
2022-10-22T00:19:48.661Z,20.09
2022-10-22T00:19:58.636Z,20.09
2022-10-22T00:20:08.637Z,20.09
2022-10-22T00:20:18.639Z,20.10
2022-10-22T00:20:28.638Z,20.11
2022-10-22T00:20:38.641Z,20.11
2022-10-22T00:20:48.640Z,20.08
2022-10-22T00:20:58.644Z,20.10
2022-10-22T00:21:08.651Z,20.09
2022-10-22T00:21:18.647Z,20.09
2022-10-22T00:21:28.646Z,20.11
2022-10-22T00:21:38.647Z,20.08
2022-10-22T00:21:48.648Z,20.09
2022-10-22T00:21:58.693Z,20.08
2022-10-22T00:22:08.648Z,20.08
2022-10-22T00:22:18.649Z,20.10
2022-10-22T00:22:28.649Z,20.08
2022-10-22T00:22:38.657Z,20.11
2022-10-22T00:22:48.702Z,20.09
2022-10-22T00:22:58.666Z,20.09
2022-10-22T00:23:08.654Z,20.10
2022-10-22T00:23:18.654Z,20.09
2022-10-22T00:23:28.655Z,20.10
2022-10-22T00:23:38.658Z,20.09
2022-10-22T00:23:48.656Z,20.09
2022-10-22T00:23:58.659Z,20.10
2022-10-22T00:24:08.660Z,20.09
2022-10-22T00:24:18.660Z,20.08
2022-10-22T00:24:28.662Z,20.08
2022-10-22T00:24:38.662Z,20.09
2022-10-22T00:24:48.662Z,20.09
2022-10-22T00:24:58.661Z,20.08
2022-10-22T00:25:08.662Z,20.10
2022-10-22T00:25:18.663Z,20.08
2022-10-22T00:25:28.663Z,20.09
2022-10-22T00:25:38.673Z,20.11
2022-10-22T00:25:48.665Z,20.10
2022-10-22T00:25:58.668Z,20.10
2022-10-22T00:26:08.687Z,20.09
2022-10-22T00:26:18.669Z,20.09
2022-10-22T00:26:28.666Z,20.09
2022-10-22T00:26:38.669Z,20.09
2022-10-22T00:26:48.671Z,20.10
2022-10-22T00:26:58.670Z,20.07
2022-10-22T00:27:08.674Z,20.10
2022-10-22T00:27:18.672Z,20.10
2022-10-22T00:27:28.674Z,20.09
2022-10-22T00:27:38.835Z,20.10
2022-10-22T00:27:48.675Z,20.10
2022-10-22T00:27:58.677Z,20.10
2022-10-22T00:28:08.658Z,20.10
2022-10-22T00:28:18.679Z,20.10
2022-10-22T00:28:28.681Z,20.09
2022-10-22T00:28:38.678Z,20.10
2022-10-22T00:28:48.680Z,20.09
2022-10-22T00:28:58.680Z,20.11
2022-10-22T00:29:08.678Z,20.09
2022-10-22T00:29:18.684Z,20.08
2022-10-22T00:29:28.680Z,20.10
2022-10-22T00:29:38.666Z,20.09
2022-10-22T00:29:48.683Z,20.09
2022-10-22T00:29:58.684Z,20.10
2022-10-22T00:30:08.690Z,20.10
2022-10-22T00:30:18.699Z,20.09
2022-10-22T00:30:28.688Z,20.09
2022-10-22T00:30:38.669Z,20.10
2022-10-22T00:30:48.688Z,20.08
2022-10-22T00:30:58.692Z,20.08
2022-10-22T00:31:08.692Z,20.11
2022-10-22T00:31:18.673Z,20.10
2022-10-22T00:31:28.697Z,20.09
2022-10-22T00:31:38.693Z,20.10
2022-10-22T00:31:48.771Z,20.10
2022-10-22T00:31:58.706Z,20.10
2022-10-22T00:32:08.700Z,20.08
2022-10-22T00:32:18.703Z,20.10
2022-10-22T00:32:28.702Z,20.09
2022-10-22T00:32:39.044Z,20.09
2022-10-22T00:32:48.703Z,20.09
2022-10-22T00:32:58.683Z,20.09
2022-10-22T00:33:08.705Z,20.08
2022-10-22T00:33:18.703Z,20.10
2022-10-22T00:33:28.704Z,20.09
2022-10-22T00:33:38.703Z,20.09
2022-10-22T00:33:48.705Z,20.09
2022-10-22T00:33:58.705Z,20.09
2022-10-22T00:34:08.706Z,20.07
2022-10-22T00:34:18.705Z,20.09
2022-10-22T00:34:28.711Z,20.10
2022-10-22T00:34:38.746Z,20.09
2022-10-22T00:34:48.709Z,20.09
2022-10-22T00:34:58.694Z,20.09
2022-10-22T00:35:08.712Z,20.07
2022-10-22T00:35:18.713Z,20.11
2022-10-22T00:35:28.715Z,20.09
2022-10-22T00:35:38.714Z,20.10
2022-10-22T00:35:48.713Z,20.09
2022-10-22T00:35:58.716Z,20.09
2022-10-22T00:36:08.717Z,20.10
2022-10-22T00:36:18.718Z,20.08
2022-10-22T00:36:28.715Z,20.10
2022-10-22T00:36:38.716Z,20.11
2022-10-22T00:36:48.718Z,20.10
2022-10-22T00:36:58.716Z,20.07
2022-10-22T00:37:08.720Z,20.09
2022-10-22T00:37:18.721Z,20.09
2022-10-22T00:37:28.720Z,20.09
2022-10-22T00:37:38.720Z,20.08
2022-10-22T00:37:48.722Z,20.08
2022-10-22T00:37:58.723Z,20.08
2022-10-22T00:38:08.732Z,20.08
2022-10-22T00:38:18.728Z,20.07
2022-10-22T00:38:28.726Z,20.08
2022-10-22T00:38:38.729Z,20.10
2022-10-22T00:38:48.727Z,20.09
2022-10-22T00:38:58.729Z,20.09
2022-10-22T00:39:08.730Z,20.08
2022-10-22T00:39:18.730Z,20.09
2022-10-22T00:39:28.732Z,20.09
2022-10-22T00:39:38.737Z,20.08
2022-10-22T00:39:48.736Z,20.07
2022-10-22T00:39:58.736Z,20.08
2022-10-22T00:40:08.736Z,20.11
2022-10-22T00:40:18.739Z,20.09
2022-10-22T00:40:28.738Z,20.09
2022-10-22T00:40:38.743Z,20.08
2022-10-22T00:40:48.782Z,20.08
2022-10-22T00:40:58.802Z,20.08
2022-10-22T00:41:08.742Z,20.09
2022-10-22T00:41:18.741Z,20.08
2022-10-22T00:41:28.744Z,20.09
2022-10-22T00:41:38.744Z,20.07
2022-10-22T00:41:48.745Z,20.08
2022-10-22T00:41:58.744Z,20.09
2022-10-22T00:42:08.747Z,20.10
2022-10-22T00:42:18.752Z,20.09
2022-10-22T00:42:28.749Z,20.08
2022-10-22T00:42:39.153Z,20.09
2022-10-22T00:42:48.749Z,20.07
2022-10-22T00:42:58.751Z,20.09
2022-10-22T00:43:08.763Z,20.08
2022-10-22T00:43:18.752Z,20.10
2022-10-22T00:43:28.752Z,20.08
2022-10-22T00:43:38.755Z,20.08
2022-10-22T00:43:48.753Z,20.10
2022-10-22T00:43:58.754Z,20.09
2022-10-22T00:44:08.755Z,20.07
2022-10-22T00:44:18.756Z,20.10
2022-10-22T00:44:28.757Z,20.09
2022-10-22T00:44:38.758Z,20.09
2022-10-22T00:44:48.741Z,20.07
2022-10-22T00:44:58.759Z,20.10
2022-10-22T00:45:08.762Z,20.09
2022-10-22T00:45:18.760Z,20.09
2022-10-22T00:45:28.761Z,20.09
2022-10-22T00:45:38.763Z,20.09
2022-10-22T00:45:48.764Z,20.08
2022-10-22T00:45:58.767Z,20.09
2022-10-22T00:46:08.764Z,20.09
2022-10-22T00:46:18.768Z,20.09
2022-10-22T00:46:28.768Z,20.08
2022-10-22T00:46:38.768Z,20.09
2022-10-22T00:46:48.771Z,20.09
2022-10-22T00:46:58.769Z,20.09
2022-10-22T00:47:08.772Z,20.09
2022-10-22T00:47:18.771Z,20.10
2022-10-22T00:47:28.773Z,20.10
2022-10-22T00:47:38.773Z,20.09
2022-10-22T00:47:48.773Z,20.09
2022-10-22T00:47:58.775Z,20.09
2022-10-22T00:48:08.775Z,20.09
2022-10-22T00:48:18.774Z,20.09
2022-10-22T00:48:28.776Z,20.10
2022-10-22T00:48:38.777Z,20.10
2022-10-22T00:48:48.777Z,20.09
2022-10-22T00:48:58.779Z,20.09
2022-10-22T00:49:08.781Z,20.10
2022-10-22T00:49:18.782Z,20.10
2022-10-22T00:49:28.780Z,20.08
2022-10-22T00:49:38.781Z,20.09
2022-10-22T00:49:48.782Z,20.10
2022-10-22T00:49:58.857Z,20.09
2022-10-22T00:50:08.786Z,20.09
2022-10-22T00:50:18.784Z,20.08
2022-10-22T00:50:28.783Z,20.08
2022-10-22T00:50:38.783Z,20.09
2022-10-22T00:50:48.786Z,20.08
2022-10-22T00:50:58.785Z,20.09
2022-10-22T00:51:08.784Z,20.08
2022-10-22T00:51:18.787Z,20.09
2022-10-22T00:51:28.787Z,20.08
2022-10-22T00:51:38.786Z,20.09
2022-10-22T00:51:48.788Z,20.09
2022-10-22T00:51:58.791Z,20.08
2022-10-22T00:52:08.793Z,20.08
2022-10-22T00:52:18.794Z,20.09
2022-10-22T00:52:28.793Z,20.08
2022-10-22T00:52:39.247Z,20.08
2022-10-22T00:52:48.779Z,20.08
2022-10-22T00:52:58.794Z,20.09
2022-10-22T00:53:08.796Z,20.09
2022-10-22T00:53:18.796Z,20.09
2022-10-22T00:53:28.799Z,20.09
2022-10-22T00:53:38.804Z,20.10
2022-10-22T00:53:48.802Z,20.08
2022-10-22T00:53:58.802Z,20.10
2022-10-22T00:54:08.801Z,20.08
2022-10-22T00:54:18.807Z,20.08
2022-10-22T00:54:28.787Z,20.09
2022-10-22T00:54:38.804Z,20.09
2022-10-22T00:54:48.805Z,20.08
2022-10-22T00:54:58.793Z,20.09
2022-10-22T00:55:08.807Z,20.10
2022-10-22T00:55:18.807Z,20.10
2022-10-22T00:55:28.814Z,20.08
2022-10-22T00:55:38.809Z,20.09
2022-10-22T00:55:48.810Z,20.08
2022-10-22T00:55:58.816Z,20.08
2022-10-22T00:56:08.811Z,20.09
2022-10-22T00:56:18.811Z,20.09
2022-10-22T00:56:28.811Z,20.09
2022-10-22T00:56:38.814Z,20.09
2022-10-22T00:56:48.828Z,20.10
2022-10-22T00:56:58.816Z,20.10
2022-10-22T00:57:08.819Z,20.08
2022-10-22T00:57:18.818Z,20.09
2022-10-22T00:57:28.816Z,20.08
2022-10-22T00:57:38.819Z,20.09
2022-10-22T00:57:48.822Z,20.09
2022-10-22T00:57:58.821Z,20.09
2022-10-22T00:58:08.821Z,20.08
2022-10-22T00:58:18.821Z,20.09
2022-10-22T00:58:28.821Z,20.08
2022-10-22T00:58:38.822Z,20.09
2022-10-22T00:58:48.825Z,20.09
2022-10-22T00:58:58.879Z,20.08
2022-10-22T00:59:18.826Z,20.10
2022-10-22T00:59:28.827Z,20.10
2022-10-22T00:59:38.827Z,20.08
2022-10-22T00:59:48.827Z,20.08
2022-10-22T00:59:58.826Z,20.09
2022-10-22T01:00:08.830Z,20.09
2022-10-22T01:00:18.829Z,20.09
2022-10-22T01:00:28.871Z,20.08
2022-10-22T01:00:38.867Z,20.08
2022-10-22T01:00:48.863Z,20.08
2022-10-22T01:00:58.874Z,20.08
2022-10-22T01:01:08.882Z,20.09
2022-10-22T01:01:18.851Z,20.07
2022-10-22T01:01:28.834Z,20.08
2022-10-22T01:01:38.836Z,20.08
2022-10-22T01:01:48.836Z,20.10
2022-10-22T01:01:58.839Z,20.08
2022-10-22T01:02:08.838Z,20.08
2022-10-22T01:02:18.838Z,20.07
2022-10-22T01:02:28.839Z,20.08
2022-10-22T01:02:39.128Z,20.09
2022-10-22T01:02:48.839Z,20.08
2022-10-22T01:02:58.839Z,20.08
2022-10-22T01:03:08.844Z,20.08
2022-10-22T01:03:18.843Z,20.09
2022-10-22T01:03:28.842Z,20.10
2022-10-22T01:03:38.842Z,20.10
2022-10-22T01:03:48.845Z,20.08
2022-10-22T01:03:58.843Z,20.08
2022-10-22T01:04:08.844Z,20.07
2022-10-22T01:04:18.845Z,20.08
2022-10-22T01:04:28.843Z,20.09
2022-10-22T01:04:38.849Z,20.09
2022-10-22T01:04:48.848Z,20.09
2022-10-22T01:04:58.854Z,20.09
2022-10-22T01:05:08.851Z,20.08
2022-10-22T01:05:18.853Z,20.07
2022-10-22T01:05:28.853Z,20.09
2022-10-22T01:05:38.855Z,20.07
2022-10-22T01:05:48.855Z,20.07
2022-10-22T01:05:58.857Z,20.08
2022-10-22T01:06:08.857Z,20.07
2022-10-22T01:06:18.856Z,20.09
2022-10-22T01:06:28.864Z,20.10
2022-10-22T01:06:38.857Z,20.09
2022-10-22T01:06:48.860Z,20.08
2022-10-22T01:06:58.861Z,20.08
2022-10-22T01:07:08.865Z,20.09
2022-10-22T01:07:18.888Z,20.09
2022-10-22T01:07:28.864Z,20.08
2022-10-22T01:07:38.863Z,20.09
2022-10-22T01:07:48.866Z,20.07
2022-10-22T01:07:58.907Z,20.08
2022-10-22T01:08:08.890Z,20.08
2022-10-22T01:08:18.870Z,20.09
2022-10-22T01:08:28.871Z,20.09
2022-10-22T01:08:38.912Z,20.08
2022-10-22T01:08:48.905Z,20.09
2022-10-22T01:08:58.888Z,20.09
2022-10-22T01:09:08.917Z,20.09
2022-10-22T01:09:18.877Z,20.08
2022-10-22T01:09:28.875Z,20.08
2022-10-22T01:09:38.859Z,20.08
2022-10-22T01:09:48.879Z,20.09
2022-10-22T01:09:58.879Z,20.09
2022-10-22T01:10:08.881Z,20.08
2022-10-22T01:10:18.879Z,20.09
2022-10-22T01:10:28.883Z,20.08
2022-10-22T01:10:38.883Z,20.08
2022-10-22T01:10:48.884Z,20.08
2022-10-22T01:10:58.883Z,20.08
2022-10-22T01:11:08.868Z,20.08
2022-10-22T01:11:18.909Z,20.08
2022-10-22T01:11:28.886Z,20.07
2022-10-22T01:11:38.889Z,20.08
2022-10-22T01:11:48.891Z,20.08
2022-10-22T01:11:58.889Z,20.09
2022-10-22T01:12:08.891Z,20.07
2022-10-22T01:12:18.890Z,20.08
2022-10-22T01:12:28.890Z,20.08
2022-10-22T01:12:39.230Z,20.07
2022-10-22T01:12:48.899Z,20.08
2022-10-22T01:12:58.893Z,20.08
2022-10-22T01:13:08.895Z,20.08
2022-10-22T01:13:18.893Z,20.07
2022-10-22T01:13:28.895Z,20.08
2022-10-22T01:13:38.894Z,20.10
2022-10-22T01:13:48.896Z,20.09
2022-10-22T01:13:58.906Z,20.08
2022-10-22T01:14:08.896Z,20.08
2022-10-22T01:14:18.900Z,20.08
2022-10-22T01:14:28.901Z,20.08
2022-10-22T01:14:38.906Z,20.10
2022-10-22T01:14:48.903Z,20.10
2022-10-22T01:14:58.904Z,20.09
2022-10-22T01:15:08.905Z,20.09
2022-10-22T01:15:18.909Z,20.07
2022-10-22T01:15:28.905Z,20.10
2022-10-22T01:15:38.908Z,20.07
2022-10-22T01:15:48.907Z,20.07
2022-10-22T01:15:58.912Z,20.08
2022-10-22T01:16:08.910Z,20.09
2022-10-22T01:16:18.911Z,20.08
2022-10-22T01:16:28.914Z,20.08
2022-10-22T01:16:38.913Z,20.10
2022-10-22T01:16:48.915Z,20.08
2022-10-22T01:16:58.917Z,20.09
2022-10-22T01:17:08.955Z,20.09
2022-10-22T01:17:18.923Z,20.10
2022-10-22T01:17:28.923Z,20.08
2022-10-22T01:17:39.142Z,20.09
2022-10-22T01:17:48.924Z,20.08
2022-10-22T01:17:58.925Z,20.09
2022-10-22T01:18:08.923Z,20.08
2022-10-22T01:18:18.926Z,20.08
2022-10-22T01:18:28.927Z,20.09
2022-10-22T01:18:38.926Z,20.10
2022-10-22T01:18:48.927Z,20.09
2022-10-22T01:18:58.930Z,20.10
2022-10-22T01:19:08.930Z,20.09
2022-10-22T01:19:18.933Z,20.08
2022-10-22T01:19:28.933Z,20.09
2022-10-22T01:19:38.934Z,20.09
2022-10-22T01:19:48.934Z,20.08
2022-10-22T01:19:58.935Z,20.10
2022-10-22T01:20:08.937Z,20.08
2022-10-22T01:20:18.937Z,20.11
2022-10-22T01:20:28.942Z,20.09
2022-10-22T01:20:38.938Z,20.08
2022-10-22T01:20:48.939Z,20.10
2022-10-22T01:20:58.944Z,20.09
2022-10-22T01:21:08.939Z,20.07
2022-10-22T01:21:18.938Z,20.09
2022-10-22T01:21:28.945Z,20.10
2022-10-22T01:21:38.941Z,20.10
2022-10-22T01:21:48.943Z,20.09
2022-10-22T01:21:58.943Z,20.09
2022-10-22T01:22:08.946Z,20.09
2022-10-22T01:22:18.945Z,20.09
2022-10-22T01:22:28.945Z,20.08
2022-10-22T01:22:38.948Z,20.09
2022-10-22T01:22:48.929Z,20.09
2022-10-22T01:22:58.953Z,20.09
2022-10-22T01:23:08.950Z,20.08
2022-10-22T01:23:18.948Z,20.08
2022-10-22T01:23:28.950Z,20.07
2022-10-22T01:23:38.953Z,20.08
2022-10-22T01:23:48.936Z,20.08
2022-10-22T01:23:58.955Z,20.08
2022-10-22T01:24:08.952Z,20.10
2022-10-22T01:24:18.955Z,20.09
2022-10-22T01:24:28.957Z,20.09
2022-10-22T01:24:38.956Z,20.09
2022-10-22T01:24:48.958Z,20.09
2022-10-22T01:24:58.960Z,20.06
2022-10-22T01:25:08.960Z,20.07
2022-10-22T01:25:18.960Z,20.08
2022-10-22T01:25:28.962Z,20.10
2022-10-22T01:25:38.963Z,20.09
2022-10-22T01:25:48.963Z,20.07
2022-10-22T01:25:58.964Z,20.08
2022-10-22T01:26:09.022Z,20.08
2022-10-22T01:26:18.977Z,20.09
2022-10-22T01:26:28.971Z,20.08
2022-10-22T01:26:38.970Z,20.08
2022-10-22T01:26:48.968Z,20.07
2022-10-22T01:26:58.969Z,20.08
2022-10-22T01:27:08.980Z,20.07
2022-10-22T01:27:18.970Z,20.09
2022-10-22T01:27:28.970Z,20.08
2022-10-22T01:27:39.259Z,20.08
2022-10-22T01:27:48.973Z,20.09
2022-10-22T01:27:58.974Z,20.08
2022-10-22T01:28:08.974Z,20.09
2022-10-22T01:28:18.975Z,20.08
2022-10-22T01:28:28.959Z,20.08
2022-10-22T01:28:38.981Z,20.10
2022-10-22T01:28:48.977Z,20.09
2022-10-22T01:28:58.975Z,20.06
2022-10-22T01:29:08.974Z,20.07
2022-10-22T01:29:18.979Z,20.08
2022-10-22T01:29:28.980Z,20.08
2022-10-22T01:29:38.984Z,20.07
2022-10-22T01:29:48.981Z,20.08
2022-10-22T01:29:58.980Z,20.08
2022-10-22T01:30:08.964Z,20.08
2022-10-22T01:30:18.984Z,20.08
2022-10-22T01:30:28.984Z,20.08
2022-10-22T01:30:38.992Z,20.07
2022-10-22T01:30:48.988Z,20.08
2022-10-22T01:30:58.986Z,20.07
2022-10-22T01:31:08.986Z,20.08
2022-10-22T01:31:18.989Z,20.08
2022-10-22T01:31:28.988Z,20.08
2022-10-22T01:31:39.012Z,20.08
2022-10-22T01:31:48.992Z,20.08
2022-10-22T01:31:58.994Z,20.08
2022-10-22T01:32:09.009Z,20.06
2022-10-22T01:32:18.995Z,20.06
2022-10-22T01:32:28.994Z,20.06
2022-10-22T01:32:38.996Z,20.07
2022-10-22T01:32:48.995Z,20.08
2022-10-22T01:32:59.000Z,20.07
2022-10-22T01:33:08.998Z,20.06
2022-10-22T01:33:19.000Z,20.07
2022-10-22T01:33:29.001Z,20.08
2022-10-22T01:33:39.004Z,20.07
2022-10-22T01:33:49.005Z,20.07
2022-10-22T01:33:59.011Z,20.08
2022-10-22T01:34:09.005Z,20.07
2022-10-22T01:34:19.005Z,20.07
2022-10-22T01:34:29.007Z,20.07
2022-10-22T01:34:39.008Z,20.07
2022-10-22T01:34:49.007Z,20.06
2022-10-22T01:34:59.011Z,20.05
2022-10-22T01:35:09.011Z,20.07
2022-10-22T01:35:19.012Z,20.07
2022-10-22T01:35:29.040Z,20.07
2022-10-22T01:35:39.001Z,20.07
2022-10-22T01:35:49.012Z,20.07
2022-10-22T01:35:59.016Z,20.07
2022-10-22T01:36:09.015Z,20.09
2022-10-22T01:36:19.017Z,20.07
2022-10-22T01:36:29.016Z,20.09
2022-10-22T01:36:39.017Z,20.07
2022-10-22T01:36:49.018Z,20.09
2022-10-22T01:36:59.021Z,20.09
2022-10-22T01:37:09.033Z,20.09
2022-10-22T01:37:19.020Z,20.08
2022-10-22T01:37:29.022Z,20.08
2022-10-22T01:37:39.467Z,20.08
2022-10-22T01:37:49.027Z,20.08
2022-10-22T01:37:59.032Z,20.08
2022-10-22T01:38:09.023Z,20.06
2022-10-22T01:38:19.024Z,20.08
2022-10-22T01:38:29.027Z,20.07
2022-10-22T01:38:39.032Z,20.06
2022-10-22T01:38:49.029Z,20.06
2022-10-22T01:38:59.030Z,20.06
2022-10-22T01:39:09.032Z,20.10
2022-10-22T01:39:19.032Z,20.09
2022-10-22T01:39:29.037Z,20.08
2022-10-22T01:39:39.033Z,20.08
2022-10-22T01:39:49.036Z,20.08
2022-10-22T01:39:59.035Z,20.09
2022-10-22T01:40:09.036Z,20.08
2022-10-22T01:40:19.038Z,20.09
2022-10-22T01:40:29.040Z,20.09
2022-10-22T01:40:39.041Z,20.07
2022-10-22T01:40:49.040Z,20.07
2022-10-22T01:40:59.050Z,20.09
2022-10-22T01:41:09.046Z,20.07
2022-10-22T01:41:19.045Z,20.08
2022-10-22T01:41:29.045Z,20.09
2022-10-22T01:41:39.047Z,20.07
2022-10-22T01:41:49.031Z,20.07
2022-10-22T01:41:59.048Z,20.06
2022-10-22T01:42:09.059Z,20.08
2022-10-22T01:42:19.051Z,20.08
2022-10-22T01:42:29.050Z,20.07
2022-10-22T01:42:39.033Z,20.07
2022-10-22T01:42:49.054Z,20.07
2022-10-22T01:42:59.052Z,20.07
2022-10-22T01:43:09.034Z,20.07
2022-10-22T01:43:19.054Z,20.08
2022-10-22T01:43:29.057Z,20.07
2022-10-22T01:43:39.055Z,20.08
2022-10-22T01:43:49.057Z,20.07
2022-10-22T01:43:59.060Z,20.07
2022-10-22T01:44:09.061Z,20.07
2022-10-22T01:44:19.058Z,20.06
2022-10-22T01:44:29.087Z,20.06
2022-10-22T01:44:39.071Z,20.07
2022-10-22T01:44:49.061Z,20.06
2022-10-22T01:44:59.063Z,20.07
2022-10-22T01:45:09.063Z,20.07
2022-10-22T01:45:19.066Z,20.07
2022-10-22T01:45:29.062Z,20.07
2022-10-22T01:45:39.064Z,20.06
2022-10-22T01:45:49.066Z,20.06
2022-10-22T01:45:59.066Z,20.06
2022-10-22T01:46:09.066Z,20.06
2022-10-22T01:46:19.069Z,20.03
2022-10-22T01:46:29.065Z,20.05
2022-10-22T01:46:39.068Z,20.05
2022-10-22T01:46:49.069Z,20.06
2022-10-22T01:46:59.070Z,20.04
2022-10-22T01:47:09.071Z,20.04
2022-10-22T01:47:19.081Z,20.05
2022-10-22T01:47:29.073Z,20.05
2022-10-22T01:47:39.405Z,20.05
2022-10-22T01:47:49.075Z,20.05
2022-10-22T01:47:59.075Z,20.05
2022-10-22T01:48:09.077Z,20.06
2022-10-22T01:48:19.079Z,20.05
2022-10-22T01:48:29.080Z,20.05
2022-10-22T01:48:39.081Z,20.05
2022-10-22T01:48:49.081Z,20.04
2022-10-22T01:48:59.082Z,20.04
2022-10-22T01:49:09.084Z,20.05
2022-10-22T01:49:19.087Z,20.05
2022-10-22T01:49:29.083Z,20.03
2022-10-22T01:49:39.086Z,20.04
2022-10-22T01:49:49.085Z,20.04
2022-10-22T01:49:59.088Z,20.04
2022-10-22T01:50:09.089Z,20.05
2022-10-22T01:50:19.089Z,20.05
2022-10-22T01:50:29.090Z,20.05
2022-10-22T01:50:39.091Z,20.05
2022-10-22T01:50:49.090Z,20.05
2022-10-22T01:50:59.099Z,20.04
2022-10-22T01:51:09.096Z,20.04
2022-10-22T01:51:19.094Z,20.05
2022-10-22T01:51:29.094Z,20.05
2022-10-22T01:51:39.097Z,20.04
2022-10-22T01:51:49.097Z,20.05
2022-10-22T01:51:59.100Z,20.06
2022-10-22T01:52:09.096Z,20.07
2022-10-22T01:52:19.100Z,20.06
2022-10-22T01:52:29.100Z,20.06
2022-10-22T01:52:39.100Z,20.07
2022-10-22T01:52:49.099Z,20.06
2022-10-22T01:52:59.101Z,20.07
2022-10-22T01:53:09.101Z,20.06
2022-10-22T01:53:19.102Z,20.07
2022-10-22T01:53:29.100Z,20.05
2022-10-22T01:53:39.126Z,20.05
2022-10-22T01:53:49.106Z,20.06
2022-10-22T01:53:59.104Z,20.06
2022-10-22T01:54:09.106Z,20.05
2022-10-22T01:54:19.108Z,20.07
2022-10-22T01:54:29.106Z,20.07
2022-10-22T01:54:39.107Z,20.06
2022-10-22T01:54:49.107Z,20.06
2022-10-22T01:54:59.113Z,20.06
2022-10-22T01:55:09.111Z,20.07
2022-10-22T01:55:19.112Z,20.05
2022-10-22T01:55:29.112Z,20.07
2022-10-22T01:55:39.115Z,20.08
2022-10-22T01:55:49.116Z,20.06
2022-10-22T01:55:59.098Z,20.05
2022-10-22T01:56:09.116Z,20.07
2022-10-22T01:56:19.118Z,20.06
2022-10-22T01:56:29.120Z,20.07
2022-10-22T01:56:39.122Z,20.07
2022-10-22T01:56:49.122Z,20.06
2022-10-22T01:56:59.125Z,20.05
2022-10-22T01:57:09.125Z,20.06
2022-10-22T01:57:19.127Z,20.08
2022-10-22T01:57:29.126Z,20.08
2022-10-22T01:57:39.549Z,20.05
2022-10-22T01:57:49.131Z,20.06
2022-10-22T01:57:59.130Z,20.07
2022-10-22T01:58:09.131Z,20.07
2022-10-22T01:58:19.130Z,20.06
2022-10-22T01:58:29.131Z,20.08
2022-10-22T01:58:39.133Z,20.08
2022-10-22T01:58:49.132Z,20.07
2022-10-22T01:58:59.133Z,20.06
2022-10-22T01:59:09.135Z,20.06
2022-10-22T01:59:19.135Z,20.05
2022-10-22T01:59:29.134Z,20.06
2022-10-22T01:59:39.136Z,20.05
2022-10-22T01:59:49.137Z,20.07
2022-10-22T01:59:59.140Z,20.08
2022-10-22T02:00:09.144Z,20.07
2022-10-22T02:00:19.142Z,20.06
2022-10-22T02:00:29.196Z,20.06
2022-10-22T02:00:39.168Z,20.08
2022-10-22T02:00:49.189Z,20.06
2022-10-22T02:00:59.175Z,20.07
2022-10-22T02:01:09.182Z,20.08
2022-10-22T02:01:19.149Z,20.08
2022-10-22T02:01:29.149Z,20.08
2022-10-22T02:01:39.156Z,20.08
2022-10-22T02:01:49.151Z,20.07
2022-10-22T02:01:59.153Z,20.09
2022-10-22T02:02:09.162Z,20.08
2022-10-22T02:02:19.161Z,20.07
2022-10-22T02:02:29.180Z,20.07
2022-10-22T02:02:39.217Z,20.08
2022-10-22T02:02:49.160Z,20.09
2022-10-22T02:02:59.162Z,20.07
2022-10-22T02:03:09.160Z,20.07
2022-10-22T02:03:22.796Z,20.07
2022-10-22T02:03:29.161Z,20.03
2022-10-22T02:03:39.162Z,20.03
2022-10-22T02:03:49.162Z,20.06
2022-10-22T02:03:59.164Z,20.05
2022-10-22T02:04:09.164Z,20.06
2022-10-22T02:04:19.164Z,20.05
2022-10-22T02:04:29.146Z,20.06
2022-10-22T02:04:39.167Z,20.05
2022-10-22T02:04:49.167Z,20.08
2022-10-22T02:04:59.166Z,20.06
2022-10-22T02:05:09.169Z,20.07
2022-10-22T02:05:19.168Z,20.04
2022-10-22T02:05:29.175Z,20.06
2022-10-22T02:05:39.169Z,20.05
2022-10-22T02:05:49.172Z,20.04
2022-10-22T02:05:59.172Z,20.05
2022-10-22T02:06:09.174Z,20.05
2022-10-22T02:06:19.173Z,20.05
2022-10-22T02:06:29.178Z,20.05
2022-10-22T02:06:39.176Z,20.06
2022-10-22T02:06:49.177Z,20.05
2022-10-22T02:06:59.160Z,20.05
2022-10-22T02:07:09.162Z,20.06
2022-10-22T02:07:19.185Z,20.05
2022-10-22T02:07:29.182Z,20.06
2022-10-22T02:07:39.641Z,20.05
2022-10-22T02:07:49.183Z,20.06
2022-10-22T02:07:59.182Z,20.05
2022-10-22T02:08:09.188Z,20.04
2022-10-22T02:08:19.186Z,20.05
2022-10-22T02:08:29.187Z,20.06
2022-10-22T02:08:39.266Z,20.05
2022-10-22T02:08:49.276Z,20.06
2022-10-22T02:08:59.256Z,20.04